sensor_id;sensor_type;location;lat;lon;timestamp;P1;durP1;ratioP1;P2;durP2;ratioP2
75429;SDS011;64127;51.488;5.462;2023-03-11T00:00:50;7.87;;;1.93;;
75429;SDS011;64127;51.488;5.462;2023-03-11T00:03:22;4.73;;;2.00;;
75429;SDS011;64127;51.488;5.462;2023-03-11T00:05:55;5.97;;;2.27;;
75429;SDS011;64127;51.488;5.462;2023-03-11T00:08:30;5.83;;;2.27;;
75429;SDS011;64127;51.488;5.462;2023-03-11T00:11:02;3.77;;;1.57;;
75429;SDS011;64127;51.488;5.462;2023-03-11T00:13:35;4.47;;;1.87;;
75429;SDS011;64127;51.488;5.462;2023-03-11T00:16:08;3.63;;;1.80;;
75429;SDS011;64127;51.488;5.462;2023-03-11T00:18:40;5.20;;;2.20;;
75429;SDS011;64127;51.488;5.462;2023-03-11T00:21:15;4.77;;;2.07;;
75429;SDS011;64127;51.488;5.462;2023-03-11T00:23:48;2.97;;;1.63;;
75429;SDS011;64127;51.488;5.462;2023-03-11T00:26:20;3.57;;;1.90;;
75429;SDS011;64127;51.488;5.462;2023-03-11T00:28:52;5.33;;;1.93;;
75429;SDS011;64127;51.488;5.462;2023-03-11T00:31:25;6.17;;;2.40;;
75429;SDS011;64127;51.488;5.462;2023-03-11T00:33:57;4.60;;;2.20;;
75429;SDS011;64127;51.488;5.462;2023-03-11T00:36:30;3.50;;;2.00;;
75429;SDS011;64127;51.488;5.462;2023-03-11T00:39:04;4.40;;;1.90;;
75429;SDS011;64127;51.488;5.462;2023-03-11T00:41:41;5.70;;;2.10;;
75429;SDS011;64127;51.488;5.462;2023-03-11T00:44:13;7.20;;;1.97;;
75429;SDS011;64127;51.488;5.462;2023-03-11T00:46:45;4.90;;;1.90;;
75429;SDS011;64127;51.488;5.462;2023-03-11T00:49:17;3.07;;;1.60;;
75429;SDS011;64127;51.488;5.462;2023-03-11T00:51:49;5.57;;;2.00;;
75429;SDS011;64127;51.488;5.462;2023-03-11T00:54:21;5.00;;;2.13;;
75429;SDS011;64127;51.488;5.462;2023-03-11T00:56:53;5.67;;;1.90;;
75429;SDS011;64127;51.488;5.462;2023-03-11T00:59:25;3.43;;;1.77;;
75429;SDS011;64127;51.488;5.462;2023-03-11T01:01:57;4.37;;;1.80;;
75429;SDS011;64127;51.488;5.462;2023-03-11T01:04:29;3.73;;;1.93;;
75429;SDS011;64127;51.488;5.462;2023-03-11T01:07:01;5.17;;;2.10;;
75429;SDS011;64127;51.488;5.462;2023-03-11T01:09:33;4.60;;;1.67;;
75429;SDS011;64127;51.488;5.462;2023-03-11T01:12:05;3.93;;;2.00;;
75429;SDS011;64127;51.488;5.462;2023-03-11T01:14:37;5.00;;;2.10;;
75429;SDS011;64127;51.488;5.462;2023-03-11T01:17:09;5.00;;;1.70;;
75429;SDS011;64127;51.488;5.462;2023-03-11T01:19:41;4.40;;;2.07;;
75429;SDS011;64127;51.488;5.462;2023-03-11T01:22:15;5.10;;;2.00;;
75429;SDS011;64127;51.488;5.462;2023-03-11T01:24:47;4.93;;;2.20;;
75429;SDS011;64127;51.488;5.462;2023-03-11T01:27:19;6.20;;;2.20;;
75429;SDS011;64127;51.488;5.462;2023-03-11T01:29:51;5.50;;;1.90;;
75429;SDS011;64127;51.488;5.462;2023-03-11T01:32:23;4.53;;;1.80;;
75429;SDS011;64127;51.488;5.462;2023-03-11T01:34:55;4.67;;;1.93;;
75429;SDS011;64127;51.488;5.462;2023-03-11T01:37:28;4.63;;;1.80;;
75429;SDS011;64127;51.488;5.462;2023-03-11T01:40:00;6.53;;;2.00;;
75429;SDS011;64127;51.488;5.462;2023-03-11T01:42:32;5.83;;;2.30;;
75429;SDS011;64127;51.488;5.462;2023-03-11T01:48:32;3.63;;;2.00;;
75429;SDS011;64127;51.488;5.462;2023-03-11T01:51:05;4.53;;;2.13;;
75429;SDS011;64127;51.488;5.462;2023-03-11T01:53:38;4.53;;;1.93;;
75429;SDS011;64127;51.488;5.462;2023-03-11T01:56:10;5.00;;;2.20;;
75429;SDS011;64127;51.488;5.462;2023-03-11T01:58:45;5.20;;;2.00;;
75429;SDS011;64127;51.488;5.462;2023-03-11T02:01:22;6.10;;;2.20;;
75429;SDS011;64127;51.488;5.462;2023-03-11T02:03:55;8.87;;;2.63;;
75429;SDS011;64127;51.488;5.462;2023-03-11T02:06:29;3.27;;;1.80;;
75429;SDS011;64127;51.488;5.462;2023-03-11T02:09:03;6.20;;;2.07;;
75429;SDS011;64127;51.488;5.462;2023-03-11T02:11:36;4.60;;;2.50;;
75429;SDS011;64127;51.488;5.462;2023-03-11T02:14:08;3.77;;;2.03;;
75429;SDS011;64127;51.488;5.462;2023-03-11T02:16:40;4.47;;;1.90;;
75429;SDS011;64127;51.488;5.462;2023-03-11T02:22:02;3.70;;;1.90;;
75429;SDS011;64127;51.488;5.462;2023-03-11T02:27:49;6.00;;;1.87;;
75429;SDS011;64127;51.488;5.462;2023-03-11T02:30:24;5.23;;;2.10;;
75429;SDS011;64127;51.488;5.462;2023-03-11T02:32:57;3.40;;;1.87;;
75429;SDS011;64127;51.488;5.462;2023-03-11T02:35:30;5.40;;;1.90;;
75429;SDS011;64127;51.488;5.462;2023-03-11T02:38:02;6.23;;;1.83;;
75429;SDS011;64127;51.488;5.462;2023-03-11T02:40:47;3.90;;;1.97;;
75429;SDS011;64127;51.488;5.462;2023-03-11T02:43:29;4.70;;;2.00;;
75429;SDS011;64127;51.488;5.462;2023-03-11T02:46:11;5.40;;;2.00;;
75429;SDS011;64127;51.488;5.462;2023-03-11T02:48:45;5.57;;;2.07;;
75429;SDS011;64127;51.488;5.462;2023-03-11T02:51:19;4.37;;;1.90;;
75429;SDS011;64127;51.488;5.462;2023-03-11T02:53:52;6.13;;;2.43;;
75429;SDS011;64127;51.488;5.462;2023-03-11T02:56:30;4.27;;;1.93;;
75429;SDS011;64127;51.488;5.462;2023-03-11T02:59:02;5.73;;;2.13;;
75429;SDS011;64127;51.488;5.462;2023-03-11T03:01:35;5.10;;;2.17;;
75429;SDS011;64127;51.488;5.462;2023-03-11T03:04:07;5.03;;;2.30;;
75429;SDS011;64127;51.488;5.462;2023-03-11T03:06:39;6.30;;;1.80;;
75429;SDS011;64127;51.488;5.462;2023-03-11T03:09:11;3.57;;;1.80;;
75429;SDS011;64127;51.488;5.462;2023-03-11T03:11:43;3.40;;;2.20;;
75429;SDS011;64127;51.488;5.462;2023-03-11T03:14:15;3.90;;;2.10;;
75429;SDS011;64127;51.488;5.462;2023-03-11T03:16:48;2.70;;;1.90;;
75429;SDS011;64127;51.488;5.462;2023-03-11T03:19:20;4.97;;;2.27;;
75429;SDS011;64127;51.488;5.462;2023-03-11T03:21:52;4.90;;;2.37;;
75429;SDS011;64127;51.488;5.462;2023-03-11T03:24:24;5.47;;;2.00;;
75429;SDS011;64127;51.488;5.462;2023-03-11T03:26:56;4.23;;;2.33;;
75429;SDS011;64127;51.488;5.462;2023-03-11T03:29:28;4.17;;;1.87;;
75429;SDS011;64127;51.488;5.462;2023-03-11T03:32:00;4.73;;;2.07;;
75429;SDS011;64127;51.488;5.462;2023-03-11T03:34:32;4.37;;;2.07;;
75429;SDS011;64127;51.488;5.462;2023-03-11T03:37:05;5.07;;;1.90;;
75429;SDS011;64127;51.488;5.462;2023-03-11T03:39:37;5.03;;;1.87;;
75429;SDS011;64127;51.488;5.462;2023-03-11T03:42:09;4.70;;;2.20;;
75429;SDS011;64127;51.488;5.462;2023-03-11T03:44:41;3.33;;;2.00;;
75429;SDS011;64127;51.488;5.462;2023-03-11T03:47:13;4.83;;;1.90;;
75429;SDS011;64127;51.488;5.462;2023-03-11T03:49:45;4.53;;;2.10;;
75429;SDS011;64127;51.488;5.462;2023-03-11T03:52:17;3.10;;;1.90;;
75429;SDS011;64127;51.488;5.462;2023-03-11T03:54:49;5.83;;;2.00;;
75429;SDS011;64127;51.488;5.462;2023-03-11T03:57:21;4.63;;;1.97;;
75429;SDS011;64127;51.488;5.462;2023-03-11T03:59:53;5.10;;;2.23;;
75429;SDS011;64127;51.488;5.462;2023-03-11T04:02:25;3.40;;;1.90;;
75429;SDS011;64127;51.488;5.462;2023-03-11T04:04:57;4.03;;;2.23;;
75429;SDS011;64127;51.488;5.462;2023-03-11T04:07:29;4.23;;;2.10;;
75429;SDS011;64127;51.488;5.462;2023-03-11T04:10:05;3.40;;;1.80;;
75429;SDS011;64127;51.488;5.462;2023-03-11T04:12:37;5.37;;;2.00;;
75429;SDS011;64127;51.488;5.462;2023-03-11T04:15:09;6.03;;;2.20;;
75429;SDS011;64127;51.488;5.462;2023-03-11T04:17:42;2.23;;;1.77;;
75429;SDS011;64127;51.488;5.462;2023-03-11T04:20:14;4.17;;;2.07;;
75429;SDS011;64127;51.488;5.462;2023-03-11T04:22:46;3.23;;;1.77;;
75429;SDS011;64127;51.488;5.462;2023-03-11T04:25:18;4.87;;;2.00;;
75429;SDS011;64127;51.488;5.462;2023-03-11T04:27:50;3.90;;;1.83;;
75429;SDS011;64127;51.488;5.462;2023-03-11T04:30:22;3.23;;;1.90;;
75429;SDS011;64127;51.488;5.462;2023-03-11T04:32:54;4.47;;;2.33;;
75429;SDS011;64127;51.488;5.462;2023-03-11T04:35:26;7.83;;;2.20;;
75429;SDS011;64127;51.488;5.462;2023-03-11T04:37:58;4.07;;;2.00;;
75429;SDS011;64127;51.488;5.462;2023-03-11T04:40:31;5.17;;;2.10;;
75429;SDS011;64127;51.488;5.462;2023-03-11T04:43:03;5.77;;;2.33;;
75429;SDS011;64127;51.488;5.462;2023-03-11T04:45:38;2.63;;;1.90;;
75429;SDS011;64127;51.488;5.462;2023-03-11T04:48:12;5.07;;;2.40;;
75429;SDS011;64127;51.488;5.462;2023-03-11T04:50:44;4.10;;;2.40;;
75429;SDS011;64127;51.488;5.462;2023-03-11T04:53:16;2.53;;;2.03;;
75429;SDS011;64127;51.488;5.462;2023-03-11T04:55:48;4.03;;;2.07;;
75429;SDS011;64127;51.488;5.462;2023-03-11T04:58:20;7.13;;;2.30;;
75429;SDS011;64127;51.488;5.462;2023-03-11T05:00:52;5.17;;;2.00;;
75429;SDS011;64127;51.488;5.462;2023-03-11T05:03:26;3.60;;;1.93;;
75429;SDS011;64127;51.488;5.462;2023-03-11T05:05:58;5.40;;;2.27;;
75429;SDS011;64127;51.488;5.462;2023-03-11T05:08:30;3.87;;;2.47;;
75429;SDS011;64127;51.488;5.462;2023-03-11T05:11:02;4.57;;;2.20;;
75429;SDS011;64127;51.488;5.462;2023-03-11T05:13:35;6.10;;;2.30;;
75429;SDS011;64127;51.488;5.462;2023-03-11T05:16:07;5.03;;;2.47;;
75429;SDS011;64127;51.488;5.462;2023-03-11T05:18:38;5.70;;;2.20;;
75429;SDS011;64127;51.488;5.462;2023-03-11T05:21:11;3.87;;;2.50;;
75429;SDS011;64127;51.488;5.462;2023-03-11T05:23:43;4.03;;;2.23;;
75429;SDS011;64127;51.488;5.462;2023-03-11T05:26:15;4.60;;;2.23;;
75429;SDS011;64127;51.488;5.462;2023-03-11T05:28:47;3.93;;;2.13;;
75429;SDS011;64127;51.488;5.462;2023-03-11T05:31:19;3.63;;;2.10;;
75429;SDS011;64127;51.488;5.462;2023-03-11T05:33:51;5.57;;;2.00;;
75429;SDS011;64127;51.488;5.462;2023-03-11T05:36:23;5.10;;;2.30;;
75429;SDS011;64127;51.488;5.462;2023-03-11T05:38:55;4.67;;;2.10;;
75429;SDS011;64127;51.488;5.462;2023-03-11T05:41:27;4.10;;;2.03;;
75429;SDS011;64127;51.488;5.462;2023-03-11T05:43:59;4.37;;;2.30;;
75429;SDS011;64127;51.488;5.462;2023-03-11T05:46:31;4.13;;;2.10;;
75429;SDS011;64127;51.488;5.462;2023-03-11T05:49:03;4.07;;;2.27;;
75429;SDS011;64127;51.488;5.462;2023-03-11T05:51:36;4.53;;;2.20;;
75429;SDS011;64127;51.488;5.462;2023-03-11T05:54:08;4.97;;;1.90;;
75429;SDS011;64127;51.488;5.462;2023-03-11T05:56:45;4.73;;;2.20;;
75429;SDS011;64127;51.488;5.462;2023-03-11T05:59:17;2.57;;;1.77;;
75429;SDS011;64127;51.488;5.462;2023-03-11T06:01:49;4.37;;;2.10;;
75429;SDS011;64127;51.488;5.462;2023-03-11T06:04:21;4.70;;;1.70;;
75429;SDS011;64127;51.488;5.462;2023-03-11T06:06:53;3.90;;;2.27;;
75429;SDS011;64127;51.488;5.462;2023-03-11T06:09:25;2.97;;;1.93;;
75429;SDS011;64127;51.488;5.462;2023-03-11T06:11:57;6.33;;;2.20;;
75429;SDS011;64127;51.488;5.462;2023-03-11T06:14:29;3.17;;;2.20;;
75429;SDS011;64127;51.488;5.462;2023-03-11T06:17:03;2.60;;;2.00;;
75429;SDS011;64127;51.488;5.462;2023-03-11T06:19:35;2.77;;;2.10;;
75429;SDS011;64127;51.488;5.462;2023-03-11T06:22:07;4.53;;;2.20;;
75429;SDS011;64127;51.488;5.462;2023-03-11T06:24:39;4.77;;;2.47;;
75429;SDS011;64127;51.488;5.462;2023-03-11T06:27:11;3.63;;;2.20;;
75429;SDS011;64127;51.488;5.462;2023-03-11T06:29:43;6.53;;;2.27;;
75429;SDS011;64127;51.488;5.462;2023-03-11T06:32:17;4.73;;;2.27;;
75429;SDS011;64127;51.488;5.462;2023-03-11T06:34:52;5.57;;;2.60;;
75429;SDS011;64127;51.488;5.462;2023-03-11T06:37:24;3.23;;;2.43;;
75429;SDS011;64127;51.488;5.462;2023-03-11T06:39:56;3.63;;;2.40;;
75429;SDS011;64127;51.488;5.462;2023-03-11T06:42:28;5.33;;;2.40;;
75429;SDS011;64127;51.488;5.462;2023-03-11T06:45:00;5.13;;;2.50;;
75429;SDS011;64127;51.488;5.462;2023-03-11T06:47:32;5.37;;;2.57;;
75429;SDS011;64127;51.488;5.462;2023-03-11T06:50:05;4.17;;;2.70;;
75429;SDS011;64127;51.488;5.462;2023-03-11T06:52:39;4.63;;;2.27;;
75429;SDS011;64127;51.488;5.462;2023-03-11T06:55:11;4.73;;;2.17;;
75429;SDS011;64127;51.488;5.462;2023-03-11T06:57:43;4.63;;;2.47;;
75429;SDS011;64127;51.488;5.462;2023-03-11T07:00:16;4.80;;;2.40;;
75429;SDS011;64127;51.488;5.462;2023-03-11T07:02:48;5.63;;;2.67;;
75429;SDS011;64127;51.488;5.462;2023-03-11T07:05:20;5.40;;;2.67;;
75429;SDS011;64127;51.488;5.462;2023-03-11T07:07:52;4.33;;;2.43;;
75429;SDS011;64127;51.488;5.462;2023-03-11T07:10:25;4.47;;;2.47;;
75429;SDS011;64127;51.488;5.462;2023-03-11T07:12:57;4.93;;;2.40;;
75429;SDS011;64127;51.488;5.462;2023-03-11T07:15:29;5.63;;;3.00;;
75429;SDS011;64127;51.488;5.462;2023-03-11T07:18:01;5.93;;;2.70;;
75429;SDS011;64127;51.488;5.462;2023-03-11T07:20:33;5.47;;;2.67;;
75429;SDS011;64127;51.488;5.462;2023-03-11T07:23:05;5.10;;;2.40;;
75429;SDS011;64127;51.488;5.462;2023-03-11T07:25:37;3.80;;;2.30;;
75429;SDS011;64127;51.488;5.462;2023-03-11T07:28:09;4.67;;;2.63;;
75429;SDS011;64127;51.488;5.462;2023-03-11T07:30:41;2.53;;;2.20;;
75429;SDS011;64127;51.488;5.462;2023-03-11T07:33:14;8.23;;;2.10;;
75429;SDS011;64127;51.488;5.462;2023-03-11T07:35:47;7.17;;;2.57;;
75429;SDS011;64127;51.488;5.462;2023-03-11T07:38:19;5.37;;;2.37;;
75429;SDS011;64127;51.488;5.462;2023-03-11T07:40:58;4.60;;;2.63;;
75429;SDS011;64127;51.488;5.462;2023-03-11T07:43:31;5.73;;;2.20;;
75429;SDS011;64127;51.488;5.462;2023-03-11T07:46:08;4.53;;;2.07;;
75429;SDS011;64127;51.488;5.462;2023-03-11T07:48:48;5.00;;;2.50;;
75429;SDS011;64127;51.488;5.462;2023-03-11T07:51:22;4.77;;;2.10;;
75429;SDS011;64127;51.488;5.462;2023-03-11T07:53:57;4.53;;;2.20;;
75429;SDS011;64127;51.488;5.462;2023-03-11T07:56:32;3.23;;;1.87;;
75429;SDS011;64127;51.488;5.462;2023-03-11T07:59:05;7.13;;;2.30;;
75429;SDS011;64127;51.488;5.462;2023-03-11T08:01:38;5.83;;;1.93;;
75429;SDS011;64127;51.488;5.462;2023-03-11T08:04:12;2.37;;;1.90;;
75429;SDS011;64127;51.488;5.462;2023-03-11T08:06:47;6.90;;;2.17;;
75429;SDS011;64127;51.488;5.462;2023-03-11T08:09:19;4.73;;;2.20;;
75429;SDS011;64127;51.488;5.462;2023-03-11T08:11:51;4.20;;;1.80;;
75429;SDS011;64127;51.488;5.462;2023-03-11T08:14:23;5.93;;;2.07;;
75429;SDS011;64127;51.488;5.462;2023-03-11T08:16:55;3.27;;;2.00;;
75429;SDS011;64127;51.488;5.462;2023-03-11T08:19:27;4.17;;;1.90;;
75429;SDS011;64127;51.488;5.462;2023-03-11T08:22:00;3.70;;;1.90;;
75429;SDS011;64127;51.488;5.462;2023-03-11T08:24:33;4.43;;;2.07;;
75429;SDS011;64127;51.488;5.462;2023-03-11T08:27:06;4.10;;;2.17;;
75429;SDS011;64127;51.488;5.462;2023-03-11T08:29:39;2.93;;;1.70;;
75429;SDS011;64127;51.488;5.462;2023-03-11T08:32:11;2.80;;;1.80;;
75429;SDS011;64127;51.488;5.462;2023-03-11T08:34:44;4.63;;;1.77;;
75429;SDS011;64127;51.488;5.462;2023-03-11T08:37:16;3.47;;;1.97;;
75429;SDS011;64127;51.488;5.462;2023-03-11T08:39:48;5.27;;;2.03;;
75429;SDS011;64127;51.488;5.462;2023-03-11T08:42:20;5.27;;;1.87;;
75429;SDS011;64127;51.488;5.462;2023-03-11T08:44:52;3.17;;;1.73;;
75429;SDS011;64127;51.488;5.462;2023-03-11T08:47:24;3.87;;;1.60;;
75429;SDS011;64127;51.488;5.462;2023-03-11T08:49:56;5.27;;;1.97;;
75429;SDS011;64127;51.488;5.462;2023-03-11T08:52:28;4.17;;;1.90;;
75429;SDS011;64127;51.488;5.462;2023-03-11T08:55:00;3.70;;;1.40;;
75429;SDS011;64127;51.488;5.462;2023-03-11T08:57:32;3.83;;;1.70;;
75429;SDS011;64127;51.488;5.462;2023-03-11T09:00:05;3.57;;;1.60;;
75429;SDS011;64127;51.488;5.462;2023-03-11T09:02:41;3.13;;;1.50;;
75429;SDS011;64127;51.488;5.462;2023-03-11T09:05:13;4.87;;;1.50;;
75429;SDS011;64127;51.488;5.462;2023-03-11T09:07:45;2.77;;;1.40;;
75429;SDS011;64127;51.488;5.462;2023-03-11T09:10:18;5.40;;;1.50;;
75429;SDS011;64127;51.488;5.462;2023-03-11T09:12:50;3.30;;;1.60;;
75429;SDS011;64127;51.488;5.462;2023-03-11T09:15:22;3.17;;;1.17;;
75429;SDS011;64127;51.488;5.462;2023-03-11T09:17:54;2.27;;;1.50;;
75429;SDS011;64127;51.488;5.462;2023-03-11T09:20:26;4.67;;;1.50;;
75429;SDS011;64127;51.488;5.462;2023-03-11T09:22:58;2.00;;;1.10;;
75429;SDS011;64127;51.488;5.462;2023-03-11T09:25:30;2.57;;;1.30;;
75429;SDS011;64127;51.488;5.462;2023-03-11T09:28:03;2.57;;;1.07;;
75429;SDS011;64127;51.488;5.462;2023-03-11T09:30:36;1.63;;;1.07;;
75429;SDS011;64127;51.488;5.462;2023-03-11T09:33:08;1.57;;;0.90;;
75429;SDS011;64127;51.488;5.462;2023-03-11T09:35:40;2.33;;;0.87;;
75429;SDS011;64127;51.488;5.462;2023-03-11T09:38:12;2.87;;;0.90;;
75429;SDS011;64127;51.488;5.462;2023-03-11T09:40:47;2.17;;;1.07;;
75429;SDS011;64127;51.488;5.462;2023-03-11T09:51:45;2.83;;;1.00;;
75429;SDS011;64127;51.488;5.462;2023-03-11T09:54:38;3.00;;;1.20;;
75429;SDS011;64127;51.488;5.462;2023-03-11T09:57:20;5.17;;;1.20;;
75429;SDS011;64127;51.488;5.462;2023-03-11T09:59:59;1.80;;;0.90;;
75429;SDS011;64127;51.488;5.462;2023-03-11T10:02:35;2.97;;;1.00;;
75429;SDS011;64127;51.488;5.462;2023-03-11T10:05:24;3.70;;;1.20;;
75429;SDS011;64127;51.488;5.462;2023-03-11T10:08:01;2.60;;;0.80;;
75429;SDS011;64127;51.488;5.462;2023-03-11T10:11:47;3.47;;;1.40;;
75429;SDS011;64127;51.488;5.462;2023-03-11T10:22:46;3.17;;;1.20;;
75429;SDS011;64127;51.488;5.462;2023-03-11T10:25:31;2.00;;;0.97;;
75429;SDS011;64127;51.488;5.462;2023-03-11T10:28:35;2.47;;;1.00;;
75429;SDS011;64127;51.488;5.462;2023-03-11T10:34:01;2.10;;;1.00;;
75429;SDS011;64127;51.488;5.462;2023-03-11T10:39:37;1.37;;;0.90;;
75429;SDS011;64127;51.488;5.462;2023-03-11T10:42:12;3.43;;;1.33;;
75429;SDS011;64127;51.488;5.462;2023-03-11T10:44:49;4.10;;;1.50;;
75429;SDS011;64127;51.488;5.462;2023-03-11T10:47:23;1.57;;;0.90;;
75429;SDS011;64127;51.488;5.462;2023-03-11T10:49:56;3.47;;;1.20;;
75429;SDS011;64127;51.488;5.462;2023-03-11T10:52:28;7.73;;;1.30;;
75429;SDS011;64127;51.488;5.462;2023-03-11T10:55:00;2.40;;;1.20;;
75429;SDS011;64127;51.488;5.462;2023-03-11T10:57:35;1.93;;;0.90;;
75429;SDS011;64127;51.488;5.462;2023-03-11T11:00:10;12.30;;;1.90;;
75429;SDS011;64127;51.488;5.462;2023-03-11T11:02:59;2.30;;;1.17;;
75429;SDS011;64127;51.488;5.462;2023-03-11T11:05:34;2.67;;;1.30;;
75429;SDS011;64127;51.488;5.462;2023-03-11T11:08:12;2.93;;;1.30;;
75429;SDS011;64127;51.488;5.462;2023-03-11T11:10:56;3.17;;;1.33;;
75429;SDS011;64127;51.488;5.462;2023-03-11T11:13:32;3.53;;;1.20;;
75429;SDS011;64127;51.488;5.462;2023-03-11T11:16:16;2.43;;;1.07;;
75429;SDS011;64127;51.488;5.462;2023-03-11T11:19:09;1.90;;;1.10;;
75429;SDS011;64127;51.488;5.462;2023-03-11T11:21:48;2.23;;;1.30;;
75429;SDS011;64127;51.488;5.462;2023-03-11T11:24:23;2.03;;;1.20;;
75429;SDS011;64127;51.488;5.462;2023-03-11T11:27:04;2.50;;;1.57;;
75429;SDS011;64127;51.488;5.462;2023-03-11T11:32:41;2.37;;;1.30;;
75429;SDS011;64127;51.488;5.462;2023-03-11T11:35:15;2.50;;;1.20;;
75429;SDS011;64127;51.488;5.462;2023-03-11T11:37:48;2.90;;;1.30;;
75429;SDS011;64127;51.488;5.462;2023-03-11T11:43:06;1.87;;;1.30;;
75429;SDS011;64127;51.488;5.462;2023-03-11T11:45:48;3.67;;;1.10;;
75429;SDS011;64127;51.488;5.462;2023-03-11T11:51:29;2.80;;;1.27;;
75429;SDS011;64127;51.488;5.462;2023-03-11T11:54:17;3.07;;;1.30;;
75429;SDS011;64127;51.488;5.462;2023-03-11T11:57:17;3.03;;;1.30;;
75429;SDS011;64127;51.488;5.462;2023-03-11T11:59:52;2.23;;;1.20;;
75429;SDS011;64127;51.488;5.462;2023-03-11T12:02:42;1.83;;;1.10;;
75429;SDS011;64127;51.488;5.462;2023-03-11T12:06:03;2.30;;;1.20;;
75429;SDS011;64127;51.488;5.462;2023-03-11T12:12:07;2.10;;;1.10;;
75429;SDS011;64127;51.488;5.462;2023-03-11T12:17:58;4.67;;;1.30;;
75429;SDS011;64127;51.488;5.462;2023-03-11T12:20:47;2.70;;;1.30;;
75429;SDS011;64127;51.488;5.462;2023-03-11T12:26:43;3.43;;;1.27;;
75429;SDS011;64127;51.488;5.462;2023-03-11T12:31:56;7.77;;;1.53;;
75429;SDS011;64127;51.488;5.462;2023-03-11T12:34:33;5.23;;;1.10;;
75429;SDS011;64127;51.488;5.462;2023-03-11T12:37:11;4.30;;;1.27;;
75429;SDS011;64127;51.488;5.462;2023-03-11T12:39:47;1.83;;;1.10;;
75429;SDS011;64127;51.488;5.462;2023-03-11T12:42:19;2.30;;;1.23;;
75429;SDS011;64127;51.488;5.462;2023-03-11T12:44:56;2.40;;;0.93;;
75429;SDS011;64127;51.488;5.462;2023-03-11T12:51:00;2.97;;;1.27;;
75429;SDS011;64127;51.488;5.462;2023-03-11T13:05:24;1.37;;;1.10;;
75429;SDS011;64127;51.488;5.462;2023-03-11T13:14:22;2.40;;;1.57;;
75429;SDS011;64127;51.488;5.462;2023-03-11T13:19:58;3.60;;;1.33;;
75429;SDS011;64127;51.488;5.462;2023-03-11T13:22:38;2.77;;;1.20;;
75429;SDS011;64127;51.488;5.462;2023-03-11T13:34:15;8.77;;;1.80;;
75429;SDS011;64127;51.488;5.462;2023-03-11T13:43:04;3.10;;;1.23;;
75429;SDS011;64127;51.488;5.462;2023-03-11T13:49:13;3.90;;;1.37;;
75429;SDS011;64127;51.488;5.462;2023-03-11T13:51:56;3.17;;;1.20;;
75429;SDS011;64127;51.488;5.462;2023-03-11T13:54:37;2.07;;;1.20;;
75429;SDS011;64127;51.488;5.462;2023-03-11T13:57:33;2.57;;;1.30;;
75429;SDS011;64127;51.488;5.462;2023-03-11T14:00:14;2.83;;;1.00;;
75429;SDS011;64127;51.488;5.462;2023-03-11T14:05:33;3.53;;;1.30;;
75429;SDS011;64127;51.488;5.462;2023-03-11T14:13:46;2.07;;;1.20;;
75429;SDS011;64127;51.488;5.462;2023-03-11T14:16:23;3.03;;;1.10;;
75429;SDS011;64127;51.488;5.462;2023-03-11T14:19:15;2.07;;;1.20;;
75429;SDS011;64127;51.488;5.462;2023-03-11T14:21:49;2.23;;;1.20;;
75429;SDS011;64127;51.488;5.462;2023-03-11T14:24:23;2.90;;;1.50;;
75429;SDS011;64127;51.488;5.462;2023-03-11T14:27:00;1.90;;;1.10;;
75429;SDS011;64127;51.488;5.462;2023-03-11T14:29:40;2.93;;;1.40;;
75429;SDS011;64127;51.488;5.462;2023-03-11T14:32:15;6.90;;;1.80;;
75429;SDS011;64127;51.488;5.462;2023-03-11T14:35:00;3.20;;;1.13;;
75429;SDS011;64127;51.488;5.462;2023-03-11T14:37:36;3.10;;;1.30;;
75429;SDS011;64127;51.488;5.462;2023-03-11T14:43:26;2.30;;;1.17;;
75429;SDS011;64127;51.488;5.462;2023-03-11T14:46:14;2.23;;;1.47;;
75429;SDS011;64127;51.488;5.462;2023-03-11T14:48:57;3.87;;;1.40;;
75429;SDS011;64127;51.488;5.462;2023-03-11T14:51:32;3.10;;;1.23;;
75429;SDS011;64127;51.488;5.462;2023-03-11T15:03:12;2.70;;;1.30;;
75429;SDS011;64127;51.488;5.462;2023-03-11T15:05:55;2.07;;;1.40;;
75429;SDS011;64127;51.488;5.462;2023-03-11T15:08:43;2.67;;;1.10;;
75429;SDS011;64127;51.488;5.462;2023-03-11T15:11:26;2.20;;;1.30;;
75429;SDS011;64127;51.488;5.462;2023-03-11T15:14:13;2.53;;;1.30;;
75429;SDS011;64127;51.488;5.462;2023-03-11T15:16:47;3.53;;;1.50;;
75429;SDS011;64127;51.488;5.462;2023-03-11T15:22:05;3.30;;;1.50;;
75429;SDS011;64127;51.488;5.462;2023-03-11T15:24:56;1.30;;;1.13;;
75429;SDS011;64127;51.488;5.462;2023-03-11T15:27:32;2.97;;;1.40;;
75429;SDS011;64127;51.488;5.462;2023-03-11T15:33:00;2.57;;;1.60;;
75429;SDS011;64127;51.488;5.462;2023-03-11T15:35:32;2.40;;;1.30;;
75429;SDS011;64127;51.488;5.462;2023-03-11T15:40:59;3.47;;;1.60;;
75429;SDS011;64127;51.488;5.462;2023-03-11T15:43:46;1.87;;;1.40;;
75429;SDS011;64127;51.488;5.462;2023-03-11T15:46:18;3.93;;;1.40;;
75429;SDS011;64127;51.488;5.462;2023-03-11T15:48:50;2.00;;;1.37;;
75429;SDS011;64127;51.488;5.462;2023-03-11T15:51:23;2.83;;;1.60;;
75429;SDS011;64127;51.488;5.462;2023-03-11T15:53:55;5.93;;;1.93;;
75429;SDS011;64127;51.488;5.462;2023-03-11T15:56:26;3.30;;;1.57;;
75429;SDS011;64127;51.488;5.462;2023-03-11T15:58:58;3.03;;;1.37;;
75429;SDS011;64127;51.488;5.462;2023-03-11T16:01:31;4.53;;;1.67;;
75429;SDS011;64127;51.488;5.462;2023-03-11T16:04:04;6.17;;;1.60;;
75429;SDS011;64127;51.488;5.462;2023-03-11T16:06:44;2.87;;;1.53;;
75429;SDS011;64127;51.488;5.462;2023-03-11T16:09:36;1.93;;;1.23;;
75429;SDS011;64127;51.488;5.462;2023-03-11T16:12:19;5.50;;;1.70;;
75429;SDS011;64127;51.488;5.462;2023-03-11T16:14:54;4.40;;;1.97;;
75429;SDS011;64127;51.488;5.462;2023-03-11T16:17:26;4.53;;;1.77;;
75429;SDS011;64127;51.488;5.462;2023-03-11T16:20:18;5.37;;;1.60;;
75429;SDS011;64127;51.488;5.462;2023-03-11T16:22:53;5.40;;;1.97;;
75429;SDS011;64127;51.488;5.462;2023-03-11T16:25:32;2.63;;;1.60;;
75429;SDS011;64127;51.488;5.462;2023-03-11T16:28:10;1.87;;;1.60;;
75429;SDS011;64127;51.488;5.462;2023-03-11T16:30:45;2.87;;;1.60;;
75429;SDS011;64127;51.488;5.462;2023-03-11T16:33:21;2.97;;;2.60;;
75429;SDS011;64127;51.488;5.462;2023-03-11T16:35:53;7.93;;;6.50;;
75429;SDS011;64127;51.488;5.462;2023-03-11T16:38:25;6.20;;;2.40;;
75429;SDS011;64127;51.488;5.462;2023-03-11T16:41:01;2.90;;;2.20;;
75429;SDS011;64127;51.488;5.462;2023-03-11T16:43:33;5.13;;;3.00;;
75429;SDS011;64127;51.488;5.462;2023-03-11T16:46:05;2.40;;;2.03;;
75429;SDS011;64127;51.488;5.462;2023-03-11T16:48:37;2.13;;;1.50;;
75429;SDS011;64127;51.488;5.462;2023-03-11T16:51:09;2.20;;;1.50;;
75429;SDS011;64127;51.488;5.462;2023-03-11T16:53:41;1.63;;;1.30;;
75429;SDS011;64127;51.488;5.462;2023-03-11T16:56:14;6.27;;;1.70;;
75429;SDS011;64127;51.488;5.462;2023-03-11T16:58:46;2.30;;;1.57;;
75429;SDS011;64127;51.488;5.462;2023-03-11T17:01:20;1.77;;;1.43;;
75429;SDS011;64127;51.488;5.462;2023-03-11T17:03:53;2.83;;;1.50;;
75429;SDS011;64127;51.488;5.462;2023-03-11T17:06:25;2.97;;;1.50;;
75429;SDS011;64127;51.488;5.462;2023-03-11T17:08:57;3.80;;;1.60;;
75429;SDS011;64127;51.488;5.462;2023-03-11T17:11:29;2.77;;;1.60;;
75429;SDS011;64127;51.488;5.462;2023-03-11T17:14:03;2.03;;;1.43;;
75429;SDS011;64127;51.488;5.462;2023-03-11T17:16:46;2.13;;;1.60;;
75429;SDS011;64127;51.488;5.462;2023-03-11T17:19:18;4.07;;;1.80;;
75429;SDS011;64127;51.488;5.462;2023-03-11T17:21:50;1.93;;;1.73;;
75429;SDS011;64127;51.488;5.462;2023-03-11T17:24:22;2.53;;;2.13;;
75429;SDS011;64127;51.488;5.462;2023-03-11T17:26:54;3.67;;;1.90;;
75429;SDS011;64127;51.488;5.462;2023-03-11T17:29:27;3.80;;;2.20;;
75429;SDS011;64127;51.488;5.462;2023-03-11T17:31:59;3.20;;;2.30;;
75429;SDS011;64127;51.488;5.462;2023-03-11T17:34:33;4.70;;;2.87;;
75429;SDS011;64127;51.488;5.462;2023-03-11T17:37:05;3.10;;;2.40;;
75429;SDS011;64127;51.488;5.462;2023-03-11T17:39:37;3.97;;;3.00;;